Time;durP1;ratioP1;P1;durP2;ratioP2;P2;SDS_P1;SDS_P2;PMS_P1;PMS_P2;Temp;Humidity;BMP_temperature;BMP_pressure;BME280_temperature;BME280_humidity;BME280_pressure;Samples;Min_cycle;Max_cycle;Signal;HPM_P1;HPM_P2
2021/08/17 00:03:31;;;;;;;;;;;13.40;99.90;;;;;;8461379;28;20401;-58
2021/08/17 00:07:31;;;;;;;;;;;13.30;99.90;;;;;;8460286;28;20378;-58
2021/08/17 00:11:32;;;;;;;;;;;13.40;99.90;;;;;;8461002;28;19915;-57
2021/08/17 00:15:34;;;;;;;;;;;13.30;99.90;;;;;;8461085;28;19915;-58
2021/08/17 00:19:35;;;;;;;;;;;13.30;99.90;;;;;;8461337;28;19994;-58
2021/08/17 00:23:35;;;;;;;;;;;13.20;99.90;;;;;;8460927;28;19919;-58
2021/08/17 00:27:36;;;;;;;;;;;13.20;99.90;;;;;;8460124;28;19912;-58
2021/08/17 00:31:37;;;;;;;;;;;13.30;99.90;;;;;;8460489;28;20410;-58
2021/08/17 00:35:37;;;;;;;;;;;13.40;99.90;;;;;;8460063;28;20024;-57
2021/08/17 00:39:38;;;;;;;;;;;13.30;99.90;;;;;;8441889;28;20270;-58
2021/08/17 00:43:39;;;;;;;;;;;13.30;99.90;;;;;;8460175;28;19929;-58
2021/08/17 00:47:40;;;;;;;;;;;13.30;99.90;;;;;;8441473;28;19918;-58
2021/08/17 00:51:40;;;;;;;;;;;13.20;99.90;;;;;;8459602;28;19908;-58
2021/08/17 00:55:41;;;;;;;;;;;13.20;99.90;;;;;;8459844;28;19907;-57
2021/08/17 00:59:42;;;;;;;;;;;13.20;99.90;;;;;;8459216;28;19908;-56
2021/08/17 01:03:42;;;;;;;;;;;13.10;99.90;;;;;;8459373;28;20049;-56
2021/08/17 01:07:43;;;;;;;;;;;12.90;99.90;;;;;;8458728;28;19918;-57
2021/08/17 01:11:45;;;;;;;;;;;12.80;99.90;;;;;;8458628;28;19928;-59
2021/08/17 01:15:45;;;;;;;;;;;12.70;99.90;;;;;;8459321;28;20013;-58
2021/08/17 01:19:46;;;;;;;;;;;12.60;99.90;;;;;;8458891;28;19933;-58
2021/08/17 01:23:46;;;;;;;;;;;12.40;99.90;;;;;;8458967;28;19915;-58
2021/08/17 01:27:47;;;;;;;;;;;12.30;99.90;;;;;;8458477;28;19977;-57
2021/08/17 01:31:47;;;;;;;;;;;12.30;99.90;;;;;;8459228;28;19912;-57
2021/08/17 01:35:48;;;;;;;;;;;12.30;99.90;;;;;;8458825;28;19961;-57
2021/08/17 01:40:01;;;;;;;;;;;12.30;99.90;;;;;;8458707;28;19915;-56
2021/08/17 01:44:05;;;;;;;;;;;12.30;99.90;;;;;;8458954;28;19918;-58
2021/08/17 01:48:08;;;;;;;;;;;12.20;99.90;;;;;;8458321;28;20002;-58
2021/08/17 01:52:09;;;;;;;;;;;12.10;99.90;;;;;;8459217;28;20277;-58
2021/08/17 01:56:10;;;;;;;;;;;11.90;99.90;;;;;;8459149;28;19939;-57
2021/08/17 02:00:12;;;;;;;;;;;11.60;99.90;;;;;;8458520;28;20408;-58
2021/08/17 02:04:12;;;;;;;;;;;11.60;99.90;;;;;;8457997;28;19949;-56
2021/08/17 02:08:13;;;;;;;;;;;11.80;99.90;;;;;;8457498;28;19916;-58
2021/08/17 02:12:13;;;;;;;;;;;11.80;99.90;;;;;;8458412;28;19908;-58
2021/08/17 02:16:14;;;;;;;;;;;12.00;99.90;;;;;;8458416;28;19915;-58
2021/08/17 02:20:14;;;;;;;;;;;11.90;99.90;;;;;;8457464;28;20030;-58
2021/08/17 02:24:15;;;;;;;;;;;11.80;99.90;;;;;;8461381;28;19916;-56
2021/08/17 02:28:15;;;;;;;;;;;11.90;99.90;;;;;;8463891;28;19938;-58
2021/08/17 02:32:15;;;;;;;;;;;11.80;99.90;;;;;;8464396;28;20396;-57
2021/08/17 02:36:16;;;;;;;;;;;11.70;99.90;;;;;;8464494;28;19908;-58
2021/08/17 02:40:16;;;;;;;;;;;11.60;99.90;;;;;;8463823;28;19908;-58
2021/08/17 02:44:17;;;;;;;;;;;11.70;99.90;;;;;;8464002;28;19968;-59
2021/08/17 02:48:18;;;;;;;;;;;11.70;99.90;;;;;;8463440;28;19918;-56
2021/08/17 02:52:18;;;;;;;;;;;11.70;99.90;;;;;;8463906;28;19922;-58
2021/08/17 02:56:19;;;;;;;;;;;11.60;99.90;;;;;;8464324;28;20040;-57
2021/08/17 03:00:20;;;;;;;;;;;11.60;99.90;;;;;;8462820;28;19911;-58
2021/08/17 03:04:20;;;;;;;;;;;11.70;99.90;;;;;;8463355;28;19919;-58
2021/08/17 03:08:21;;;;;;;;;;;11.90;99.90;;;;;;8462648;28;19916;-57
2021/08/17 03:12:21;;;;;;;;;;;12.00;99.90;;;;;;8463184;28;19950;-58
2021/08/17 03:16:22;;;;;;;;;;;11.90;99.90;;;;;;8463142;28;19908;-58
2021/08/17 03:20:22;;;;;;;;;;;11.70;99.90;;;;;;8460991;28;19912;-57
2021/08/17 03:24:22;;;;;;;;;;;11.50;99.90;;;;;;8462949;28;20334;-57
2021/08/17 03:28:23;;;;;;;;;;;11.50;99.90;;;;;;8462083;28;20369;-58
2021/08/17 03:32:24;;;;;;;;;;;11.50;99.90;;;;;;8462388;28;19919;-59
2021/08/17 03:36:25;;;;;;;;;;;11.30;99.90;;;;;;8434205;28;20344;-56
2021/08/17 03:40:25;;;;;;;;;;;11.10;99.90;;;;;;8428202;28;20015;-57
2021/08/17 03:44:26;;;;;;;;;;;10.90;99.90;;;;;;8428307;28;19919;-57
2021/08/17 03:48:26;;;;;;;;;;;10.70;99.90;;;;;;8427761;28;19957;-58
2021/08/17 03:52:26;;;;;;;;;;;10.70;99.90;;;;;;8448880;28;19962;-68
2021/08/17 03:56:27;;;;;;;;;;;10.50;99.90;;;;;;8446411;28;19916;-68
2021/08/17 04:00:28;;;;;;;;;;;10.50;99.90;;;;;;8427782;28;20321;-68
2021/08/17 04:04:29;;;;;;;;;;;10.30;99.90;;;;;;8446374;28;20293;-68
2021/08/17 04:08:29;;;;;;;;;;;10.30;99.90;;;;;;8446745;28;19935;-68
2021/08/17 04:12:30;;;;;;;;;;;10.30;99.90;;;;;;8436039;28;19915;-68
2021/08/17 04:16:30;;;;;;;;;;;10.40;99.90;;;;;;8433750;28;20329;-68
2021/08/17 04:20:32;;;;;;;;;;;10.20;99.90;;;;;;8432481;28;19919;-68
2021/08/17 04:24:33;;;;;;;;;;;10.30;99.90;;;;;;8442690;28;19930;-68
2021/08/17 04:28:33;;;;;;;;;;;10.20;99.90;;;;;;8441353;28;19916;-61
2021/08/17 04:32:34;;;;;;;;;;;10.00;99.90;;;;;;8459896;28;20316;-62
2021/08/17 04:36:34;;;;;;;;;;;10.00;99.90;;;;;;8457500;28;19918;-61
2021/08/17 04:40:35;;;;;;;;;;;10.00;99.90;;;;;;8459866;28;19908;-61
2021/08/17 04:44:35;;;;;;;;;;;10.00;99.90;;;;;;8458378;28;19916;-62
2021/08/17 04:48:36;;;;;;;;;;;10.00;99.90;;;;;;8458630;28;19976;-61
2021/08/17 04:52:36;;;;;;;;;;;10.10;99.90;;;;;;8459117;28;19951;-61
2021/08/17 04:56:37;;;;;;;;;;;10.30;99.90;;;;;;8441628;28;19920;-61
2021/08/17 05:00:42;;;;;;;;;;;10.40;99.90;;;;;;8459269;28;19915;-61
2021/08/17 05:04:42;;;;;;;;;;;10.70;99.90;;;;;;8459749;28;19912;-61
2021/08/17 05:08:43;;;;;;;;;;;10.90;99.90;;;;;;8459088;28;20405;-61
2021/08/17 05:12:43;;;;;;;;;;;10.80;99.90;;;;;;8459300;28;19911;-61
2021/08/17 05:16:44;;;;;;;;;;;11.00;99.90;;;;;;8459344;28;20293;-61
2021/08/17 05:20:44;;;;;;;;;;;11.10;99.90;;;;;;8458672;28;20396;-60
2021/08/17 05:24:45;;;;;;;;;;;11.40;99.90;;;;;;8459194;28;19915;-61
2021/08/17 05:28:45;;;;;;;;;;;11.80;99.90;;;;;;8458401;28;19962;-61
2021/08/17 05:32:47;;;;;;;;;;;11.90;99.90;;;;;;8457870;28;20464;-61
2021/08/17 05:36:47;;;;;;;;;;;11.90;99.90;;;;;;8457930;28;19908;-61
2021/08/17 05:40:48;;;;;;;;;;;11.80;99.90;;;;;;8458097;28;20165;-61
2021/08/17 05:44:48;;;;;;;;;;;11.90;99.90;;;;;;8459052;28;20384;-61
2021/08/17 05:48:48;;;;;;;;;;;12.00;99.90;;;;;;8458651;28;19918;-61
2021/08/17 05:52:49;;;;;;;;;;;12.20;99.90;;;;;;8458730;28;19998;-61
2021/08/17 05:56:50;;;;;;;;;;;12.10;99.90;;;;;;8458550;28;19915;-61
2021/08/17 06:00:50;;;;;;;;;;;12.20;99.90;;;;;;8464424;27;19955;-61
2021/08/17 06:04:51;;;;;;;;;;;12.40;99.90;;;;;;8465607;28;19912;-61
2021/08/17 06:08:51;;;;;;;;;;;12.70;99.90;;;;;;8446731;28;20003;-61
2021/08/17 06:12:52;;;;;;;;;;;12.80;99.90;;;;;;8465115;28;19947;-61
2021/08/17 06:16:53;;;;;;;;;;;12.90;99.90;;;;;;8465285;28;19950;-61
2021/08/17 06:20:53;;;;;;;;;;;12.90;99.90;;;;;;8464711;28;19908;-61
2021/08/17 06:24:54;;;;;;;;;;;12.80;99.90;;;;;;8464903;28;19908;-61
2021/08/17 06:28:54;;;;;;;;;;;12.70;99.90;;;;;;8464393;28;20002;-61
2021/08/17 06:32:55;;;;;;;;;;;12.70;99.90;;;;;;8464822;28;19915;-61
2021/08/17 06:36:55;;;;;;;;;;;12.60;99.90;;;;;;8464936;28;19918;-61
2021/08/17 06:40:56;;;;;;;;;;;12.70;99.90;;;;;;8464347;28;19919;-61
2021/08/17 06:44:56;;;;;;;;;;;13.00;99.90;;;;;;8446123;28;19908;-61
2021/08/17 06:48:57;;;;;;;;;;;13.00;99.90;;;;;;8463629;28;19972;-61
2021/08/17 06:52:57;;;;;;;;;;;13.30;99.90;;;;;;8463740;28;19930;-61
2021/08/17 06:56:58;;;;;;;;;;;13.50;99.90;;;;;;8463865;28;20287;-62
2021/08/17 07:00:58;;;;;;;;;;;13.70;99.90;;;;;;8463474;28;19915;-61
2021/08/17 07:04:59;;;;;;;;;;;13.70;99.90;;;;;;8445353;28;20377;-61
2021/08/17 07:09:01;;;;;;;;;;;13.80;99.90;;;;;;8462327;28;19919;-61
2021/08/17 07:13:02;;;;;;;;;;;13.80;99.90;;;;;;8463134;28;20002;-61
2021/08/17 07:17:03;;;;;;;;;;;14.00;99.90;;;;;;8463074;28;19908;-61
2021/08/17 07:21:03;;;;;;;;;;;14.10;99.90;;;;;;8462801;28;19908;-61
2021/08/17 07:25:04;;;;;;;;;;;13.80;99.90;;;;;;8462859;28;19908;-61
2021/08/17 07:29:04;;;;;;;;;;;13.70;99.90;;;;;;8462356;28;19926;-61
2021/08/17 07:33:05;;;;;;;;;;;13.70;99.90;;;;;;8462787;28;20340;-62
2021/08/17 07:37:05;;;;;;;;;;;13.80;99.90;;;;;;8462539;28;19912;-61
2021/08/17 07:41:06;;;;;;;;;;;14.10;99.90;;;;;;8462199;28;20331;-61
2021/08/17 07:45:10;;;;;;;;;;;14.10;99.90;;;;;;8463044;28;20001;-62
2021/08/17 07:49:11;;;;;;;;;;;14.00;99.90;;;;;;8461974;28;19959;-62
2021/08/17 07:53:12;;;;;;;;;;;14.20;99.90;;;;;;8462171;28;20353;-62
2021/08/17 07:57:12;;;;;;;;;;;14.50;99.90;;;;;;8461946;28;19954;-62
2021/08/17 08:01:13;;;;;;;;;;;14.60;99.90;;;;;;8461911;28;19977;-62
2021/08/17 08:05:13;;;;;;;;;;;14.80;99.90;;;;;;8461834;28;19908;-62
2021/08/17 08:09:14;;;;;;;;;;;14.90;99.90;;;;;;8461268;28;20425;-62
2021/08/17 08:13:14;;;;;;;;;;;15.00;99.90;;;;;;8461414;28;19950;-62
2021/08/17 08:17:15;;;;;;;;;;;15.10;99.90;;;;;;8461154;28;19907;-62
2021/08/17 08:21:15;;;;;;;;;;;15.10;99.90;;;;;;8460434;28;19912;-62
2021/08/17 08:25:16;;;;;;;;;;;15.00;99.90;;;;;;8460895;28;19908;-62
2021/08/17 08:29:17;;;;;;;;;;;15.20;99.90;;;;;;8460326;28;19969;-62
2021/08/17 08:33:17;;;;;;;;;;;15.40;99.90;;;;;;8461165;28;19908;-62
2021/08/17 08:37:18;;;;;;;;;;;15.90;99.90;;;;;;8460476;28;19943;-62
2021/08/17 08:41:19;;;;;;;;;;;16.50;99.90;;;;;;8459976;28;19968;-62
2021/08/17 08:45:20;;;;;;;;;;;16.50;99.90;;;;;;8441771;28;19908;-62
2021/08/17 08:49:20;;;;;;;;;;;16.50;99.90;;;;;;8459894;28;19920;-62
2021/08/17 08:53:21;;;;;;;;;;;16.30;99.90;;;;;;8459637;28;20450;-62
2021/08/17 08:57:21;;;;;;;;;;;15.90;99.90;;;;;;8460370;28;19930;-62
2021/08/17 09:01:23;;;;;;;;;;;16.40;99.90;;;;;;8460189;28;20397;-62
2021/08/17 09:05:23;;;;;;;;;;;16.40;99.90;;;;;;8459818;28;20300;-62
2021/08/17 09:09:24;;;;;;;;;;;16.30;99.90;;;;;;8459412;28;19919;-62
2021/08/17 09:13:24;;;;;;;;;;;16.60;99.90;;;;;;8459709;28;19961;-62
2021/08/17 09:17:25;;;;;;;;;;;17.10;99.90;;;;;;8459304;28;19908;-62
2021/08/17 09:21:32;;;;;;;;;;;17.20;99.90;;;;;;8459183;28;19992;-62
2021/08/17 09:25:33;;;;;;;;;;;17.40;99.90;;;;;;8459391;28;20397;-62
2021/08/17 09:29:36;;;;;;;;;;;18.00;99.90;;;;;;8458660;28;20018;-62
2021/08/17 09:33:37;;;;;;;;;;;17.70;99.90;;;;;;8459048;28;20014;-62
2021/08/17 09:37:37;;;;;;;;;;;17.80;99.90;;;;;;8459264;28;19994;-62
2021/08/17 09:41:38;;;;;;;;;;;17.70;99.90;;;;;;8459223;28;19908;-62
2021/08/17 09:45:38;;;;;;;;;;;17.70;99.90;;;;;;8458762;28;20213;-62
2021/08/17 09:49:39;;;;;;;;;;;17.70;99.90;;;;;;8459076;28;19980;-62
2021/08/17 09:53:40;;;;;;;;;;;18.00;99.90;;;;;;8458711;28;19915;-62
2021/08/17 09:57:40;;;;;;;;;;;17.70;99.90;;;;;;8458676;28;20353;-62
2021/08/17 10:01:40;;;;;;;;;;;17.40;99.90;;;;;;8458963;28;20346;-62
2021/08/17 10:05:41;;;;;;;;;;;17.40;99.90;;;;;;8458992;28;19908;-62
2021/08/17 10:09:42;;;;;;;;;;;17.70;99.90;;;;;;8440365;28;19911;-63
2021/08/17 10:13:43;;;;;;;;;;;18.70;99.90;;;;;;8459154;28;19915;-62
2021/08/17 10:17:43;;;;;;;;;;;19.30;99.90;;;;;;8458375;28;19998;-62
2021/08/17 10:21:45;;;;;;;;;;;18.60;99.90;;;;;;8458674;28;19914;-62
2021/08/17 10:25:47;;;;;;;;;;;18.60;99.90;;;;;;8458750;28;19908;-62
2021/08/17 10:29:55;;;;;;;;;;;18.30;99.90;;;;;;8464692;22;20309;-65
2021/08/17 10:34:11;;;;;;;;;;;18.60;99.90;;;;;;8424493;28;19920;-67
2021/08/17 10:38:11;;;;;;;;;;;18.80;99.90;;;;;;8425275;28;19913;-67
2021/08/17 10:42:23;;;;;;;;;;;18.90;99.90;;;;;;8458388;28;19949;-68
2021/08/17 10:46:39;;;;;;;;;;;18.50;99.90;;;;;;8444171;28;20018;-67
2021/08/17 10:50:40;;;;;;;;;;;18.00;99.90;;;;;;8445297;28;20345;-67
2021/08/17 10:54:40;;;;;;;;;;;18.20;99.90;;;;;;8464032;28;19953;-67
2021/08/17 10:58:45;;;;;;;;;;;18.40;99.90;;;;;;8445310;28;19915;-68
2021/08/17 11:02:55;;;;;;;;;;;18.70;99.90;;;;;;8463688;28;19908;-67
2021/08/17 11:06:56;;;;;;;;;;;19.40;99.90;;;;;;8463422;28;20007;-67
2021/08/17 11:10:57;;;;;;;;;;;19.60;99.90;;;;;;8463285;28;19916;-67
2021/08/17 11:14:58;;;;;;;;;;;19.30;99.90;;;;;;8463251;28;20415;-68
2021/08/17 11:18:59;;;;;;;;;;;19.70;99.90;;;;;;8462804;28;19908;-68
2021/08/17 11:23:00;;;;;;;;;;;21.40;99.90;;;;;;8462910;28;19969;-68
2021/08/17 11:27:02;;;;;;;;;;;21.40;99.90;;;;;;8462725;28;19916;-67
2021/08/17 11:31:02;;;;;;;;;;;20.20;99.90;;;;;;8462361;28;19916;-68
2021/08/17 11:35:07;;;;;;;;;;;20.50;99.90;;;;;;8444317;28;19915;-68
2021/08/17 11:39:18;;;;;;;;;;;21.40;99.90;;;;;;8462127;28;20009;-68
2021/08/17 11:43:19;;;;;;;;;;;23.90;99.90;;;;;;8444169;28;20396;-68
2021/08/17 11:47:20;;;;;;;;;;;24.00;98.30;;;;;;8461438;28;19911;-68
2021/08/17 11:51:24;;;;;;;;;;;24.30;95.00;;;;;;8461673;28;19947;-68
2021/08/17 11:55:26;;;;;;;;;;;24.40;94.50;;;;;;8461351;28;19912;-68
2021/08/17 11:59:37;;;;;;;;;;;24.30;93.40;;;;;;8461643;28;20009;-68
2021/08/17 12:03:37;;;;;;;;;;;23.50;93.60;;;;;;8443348;28;19915;-69
2021/08/17 12:07:38;;;;;;;;;;;25.90;90.40;;;;;;8443130;28;19916;-68
2021/08/17 12:11:54;;;;;;;;;;;26.30;86.30;;;;;;8461376;28;19908;-68
2021/08/17 12:15:57;;;;;;;;;;;25.50;83.90;;;;;;8460666;28;21402;-68
2021/08/17 12:19:58;;;;;;;;;;;23.30;89.00;;;;;;8460749;28;19915;-68
2021/08/17 12:23:58;;;;;;;;;;;21.50;93.20;;;;;;8427750;28;19912;-68
2021/08/17 12:27:59;;;;;;;;;;;22.20;96.00;;;;;;8427232;28;20343;-68
2021/08/17 12:32:13;;;;;;;;;;;21.50;95.20;;;;;;8426855;28;19916;-68
2021/08/17 12:36:13;;;;;;;;;;;21.60;94.90;;;;;;8408791;28;19908;-68
2021/08/17 12:40:14;;;;;;;;;;;20.80;97.40;;;;;;8426454;28;19916;-68
2021/08/17 12:44:16;;;;;;;;;;;20.80;96.70;;;;;;8426769;28;20277;-68
2021/08/17 12:48:17;;;;;;;;;;;20.00;97.00;;;;;;8425504;28;19957;-68
2021/08/17 12:52:21;;;;;;;;;;;20.60;98.20;;;;;;8446183;28;19915;-68
2021/08/17 12:56:21;;;;;;;;;;;24.10;95.50;;;;;;8460056;28;20022;-68
2021/08/17 13:00:23;;;;;;;;;;;25.00;91.60;;;;;;8459715;28;19908;-68
2021/08/17 13:04:24;;;;;;;;;;;25.20;88.40;;;;;;8459484;28;19908;-68
2021/08/17 13:08:24;;;;;;;;;;;24.50;85.50;;;;;;8458472;28;19912;-68
2021/08/17 13:12:26;;;;;;;;;;;22.50;91.20;;;;;;8460060;28;19908;-67
2021/08/17 13:16:26;;;;;;;;;;;22.20;92.20;;;;;;8459610;28;19911;-67
2021/08/17 13:20:27;;;;;;;;;;;21.30;93.70;;;;;;8441050;28;20348;-68
2021/08/17 13:24:28;;;;;;;;;;;22.70;94.60;;;;;;8459450;28;19907;-68
2021/08/17 13:28:29;;;;;;;;;;;22.60;91.40;;;;;;8458970;28;19920;-68
2021/08/17 13:32:29;;;;;;;;;;;21.60;91.40;;;;;;8458953;28;19929;-68
2021/08/17 13:36:30;;;;;;;;;;;22.80;91.40;;;;;;8459105;28;19908;-68
2021/08/17 13:40:30;;;;;;;;;;;28.00;76.90;;;;;;8459075;28;19907;-68
2021/08/17 13:44:34;;;;;;;;;;;30.40;66.00;;;;;;8459670;28;20285;-68
2021/08/17 13:48:34;;;;;;;;;;;33.10;55.40;;;;;;8458491;28;19919;-68
2021/08/17 13:52:35;;;;;;;;;;;33.10;51.40;;;;;;8459190;28;19908;-68
2021/08/17 13:56:36;;;;;;;;;;;31.60;53.10;;;;;;8460211;28;19914;-68
2021/08/17 14:00:36;;;;;;;;;;;29.20;58.10;;;;;;8458819;28;19911;-68
2021/08/17 14:04:38;;;;;;;;;;;29.40;55.70;;;;;;8459187;28;19908;-65
2021/08/17 14:08:38;;;;;;;;;;;30.90;52.40;;;;;;8458930;28;19923;-66
2021/08/17 14:12:39;;;;;;;;;;;27.70;55.60;;;;;;8459276;28;20436;-68
2021/08/17 14:16:40;;;;;;;;;;;26.20;61.60;;;;;;8458762;28;19912;-68
2021/08/17 14:20:41;;;;;;;;;;;24.60;65.90;;;;;;8462413;28;19933;-68
2021/08/17 14:24:42;;;;;;;;;;;24.80;67.50;;;;;;8447166;28;19954;-68
2021/08/17 14:28:42;;;;;;;;;;;25.40;66.50;;;;;;8464839;28;19923;-67
2021/08/17 14:32:43;;;;;;;;;;;25.30;66.20;;;;;;8464994;28;19912;-67
2021/08/17 14:36:43;;;;;;;;;;;25.40;65.90;;;;;;8446635;28;20370;-68
2021/08/17 14:40:44;;;;;;;;;;;25.90;62.20;;;;;;8462184;28;19953;-68
2021/08/17 14:44:44;;;;;;;;;;;26.60;62.10;;;;;;8462449;28;19908;-68
2021/08/17 14:48:45;;;;;;;;;;;27.00;62.80;;;;;;8462403;28;19939;-68
2021/08/17 14:52:45;;;;;;;;;;;26.30;61.60;;;;;;8464417;28;19908;-68
2021/08/17 14:56:46;;;;;;;;;;;25.10;63.90;;;;;;8464480;28;19908;-67
2021/08/17 15:00:46;;;;;;;;;;;23.90;70.60;;;;;;8462576;28;20138;-67
2021/08/17 15:04:47;;;;;;;;;;;23.40;68.70;;;;;;8430041;28;19919;-68
2021/08/17 15:08:47;;;;;;;;;;;23.00;73.70;;;;;;8427272;28;19912;-67
2021/08/17 15:12:48;;;;;;;;;;;22.50;80.50;;;;;;8427843;28;20476;-68
2021/08/17 15:16:48;;;;;;;;;;;22.10;78.40;;;;;;8427565;28;19912;-68
2021/08/17 15:20:49;;;;;;;;;;;22.00;80.10;;;;;;8435753;28;20335;-68
2021/08/17 15:24:49;;;;;;;;;;;22.00;77.40;;;;;;8463391;28;19912;-68
2021/08/17 15:28:50;;;;;;;;;;;21.70;78.50;;;;;;8462550;28;19916;-68
2021/08/17 15:32:50;;;;;;;;;;;21.70;81.60;;;;;;8462662;28;19908;-68
2021/08/17 15:36:51;;;;;;;;;;;21.40;80.60;;;;;;8463590;28;19995;-68
2021/08/17 15:40:53;;;;;;;;;;;21.20;83.90;;;;;;8462614;28;20335;-68
2021/08/17 15:44:53;;;;;;;;;;;21.20;87.80;;;;;;8444304;28;19943;-68
2021/08/17 15:48:54;;;;;;;;;;;20.80;85.70;;;;;;8443653;28;20434;-67
2021/08/17 15:52:54;;;;;;;;;;;20.50;88.30;;;;;;8461725;28;20400;-67
2021/08/17 15:56:55;;;;;;;;;;;20.50;87.80;;;;;;8443919;28;19998;-67
2021/08/17 16:00:55;;;;;;;;;;;20.40;91.00;;;;;;8461977;28;19908;-67
2021/08/17 16:04:56;;;;;;;;;;;20.40;90.60;;;;;;8462137;28;19961;-67
2021/08/17 16:08:56;;;;;;;;;;;20.30;91.30;;;;;;8462256;28;19915;-67
2021/08/17 16:12:57;;;;;;;;;;;20.10;92.00;;;;;;8443304;28;20384;-68
2021/08/17 16:16:58;;;;;;;;;;;19.90;91.40;;;;;;8461735;28;19915;-68
2021/08/17 16:21:01;;;;;;;;;;;19.60;93.90;;;;;;8460392;28;19968;-67
2021/08/17 16:25:02;;;;;;;;;;;19.40;96.00;;;;;;8443244;28;20006;-68
2021/08/17 16:29:03;;;;;;;;;;;19.30;95.90;;;;;;8442567;28;19996;-67
2021/08/17 16:33:03;;;;;;;;;;;19.10;99.90;;;;;;8439435;28;19911;-68
2021/08/17 16:37:04;;;;;;;;;;;19.00;99.90;;;;;;8457888;28;19996;-67
2021/08/17 16:41:04;;;;;;;;;;;18.90;99.90;;;;;;8453822;28;19931;-67
2021/08/17 16:45:06;;;;;;;;;;;18.80;99.90;;;;;;8438612;28;20293;-67
2021/08/17 16:49:06;;;;;;;;;;;18.90;99.90;;;;;;8459126;28;19969;-67
2021/08/17 16:53:07;;;;;;;;;;;18.70;99.90;;;;;;8457289;28;20386;-67
2021/08/17 16:57:07;;;;;;;;;;;18.60;99.90;;;;;;8458343;28;19908;-67
2021/08/17 17:01:08;;;;;;;;;;;18.60;99.90;;;;;;8459983;28;19908;-66
2021/08/17 17:05:09;;;;;;;;;;;18.10;99.90;;;;;;8461230;28;19908;-66
2021/08/17 17:09:09;;;;;;;;;;;17.60;99.90;;;;;;8441787;28;19915;-67
2021/08/17 17:13:10;;;;;;;;;;;17.50;99.90;;;;;;8460109;28;20347;-67
2021/08/17 17:17:10;;;;;;;;;;;17.40;99.90;;;;;;8459645;28;19908;-67
2021/08/17 17:21:11;;;;;;;;;;;17.30;99.90;;;;;;8459552;28;19908;-67
2021/08/17 17:25:12;;;;;;;;;;;17.30;99.90;;;;;;8441742;28;19994;-67
2021/08/17 17:29:12;;;;;;;;;;;17.40;99.90;;;;;;8441038;28;19916;-67
2021/08/17 17:33:12;;;;;;;;;;;17.30;99.90;;;;;;8441350;28;19912;-67
2021/08/17 17:37:13;;;;;;;;;;;17.30;99.90;;;;;;8459443;28;20341;-67
2021/08/17 17:41:13;;;;;;;;;;;17.20;99.90;;;;;;8440877;28;20293;-67
2021/08/17 17:45:14;;;;;;;;;;;17.30;99.90;;;;;;8459237;28;19951;-67
2021/08/17 17:49:14;;;;;;;;;;;17.00;99.90;;;;;;8458855;28;19911;-67
2021/08/17 17:53:15;;;;;;;;;;;17.00;99.90;;;;;;8440228;28;19907;-67
2021/08/17 17:57:17;;;;;;;;;;;16.80;99.90;;;;;;8465880;28;20007;-67
2021/08/17 18:01:17;;;;;;;;;;;16.70;99.90;;;;;;8447379;28;20370;-67
2021/08/17 18:05:18;;;;;;;;;;;16.80;99.90;;;;;;8465744;28;19914;-67
2021/08/17 18:09:18;;;;;;;;;;;16.70;99.90;;;;;;8465126;28;19915;-67
2021/08/17 18:13:19;;;;;;;;;;;16.70;99.90;;;;;;8465340;28;19940;-67
2021/08/17 18:17:21;;;;;;;;;;;16.70;99.90;;;;;;8465222;28;19950;-67
2021/08/17 18:21:21;;;;;;;;;;;16.60;99.90;;;;;;8446546;28;19907;-67
2021/08/17 18:25:22;;;;;;;;;;;16.50;99.90;;;;;;8464944;28;19923;-67
2021/08/17 18:29:22;;;;;;;;;;;16.70;99.90;;;;;;8464266;28;20159;-67
2021/08/17 18:33:23;;;;;;;;;;;16.70;99.90;;;;;;8464646;28;19907;-67
2021/08/17 18:37:29;;;;;;;;;;;16.40;99.90;;;;;;8464547;28;20270;-67
2021/08/17 18:41:30;;;;;;;;;;;16.60;99.90;;;;;;8464341;28;19911;-67
2021/08/17 18:45:30;;;;;;;;;;;16.50;99.90;;;;;;8453440;28;19916;-67
2021/08/17 18:49:30;;;;;;;;;;;16.20;99.90;;;;;;8445729;28;19959;-67
2021/08/17 18:53:31;;;;;;;;;;;16.20;99.90;;;;;;8444576;28;19931;-66
2021/08/17 18:57:31;;;;;;;;;;;16.10;99.90;;;;;;8425042;28;19918;-66
2021/08/17 19:01:33;;;;;;;;;;;15.90;99.90;;;;;;8455563;28;19958;-66
2021/08/17 19:05:34;;;;;;;;;;;15.80;99.90;;;;;;8457280;28;19948;-66
2021/08/17 19:09:35;;;;;;;;;;;15.70;99.90;;;;;;8443109;28;20305;-65
2021/08/17 19:13:35;;;;;;;;;;;15.80;99.90;;;;;;8457116;28;19907;-66
2021/08/17 19:17:36;;;;;;;;;;;15.70;99.90;;;;;;8442513;28;20298;-66
2021/08/17 19:21:36;;;;;;;;;;;15.60;99.90;;;;;;8461887;28;19926;-66
2021/08/17 19:25:37;;;;;;;;;;;15.60;99.90;;;;;;8421043;28;21816;-66
2021/08/17 19:29:38;;;;;;;;;;;15.50;99.90;;;;;;8444054;28;19931;-66
2021/08/17 19:33:38;;;;;;;;;;;15.60;99.90;;;;;;8459761;28;19920;-66
2021/08/17 19:37:40;;;;;;;;;;;15.50;99.90;;;;;;8461855;28;19960;-66
2021/08/17 19:41:41;;;;;;;;;;;15.50;99.90;;;;;;8460912;28;20301;-66
2021/08/17 19:45:41;;;;;;;;;;;15.40;99.90;;;;;;8461699;28;19919;-66
2021/08/17 19:49:42;;;;;;;;;;;15.40;99.90;;;;;;8447287;28;19968;-66
2021/08/17 19:53:42;;;;;;;;;;;15.40;99.90;;;;;;8447988;27;19908;-66
2021/08/17 19:57:42;;;;;;;;;;;15.30;99.90;;;;;;8435162;28;19916;-66
2021/08/17 20:01:43;;;;;;;;;;;15.10;99.90;;;;;;8444712;28;19957;-66
2021/08/17 20:05:43;;;;;;;;;;;15.10;99.90;;;;;;8444274;28;19912;-66
2021/08/17 20:09:44;;;;;;;;;;;15.20;99.90;;;;;;8442997;28;20361;-66
2021/08/17 20:13:44;;;;;;;;;;;15.00;99.90;;;;;;8457397;28;19915;-66
2021/08/17 20:17:45;;;;;;;;;;;15.00;99.90;;;;;;8460458;28;19919;-65
2021/08/17 20:21:45;;;;;;;;;;;15.10;99.90;;;;;;8460568;28;19915;-66
2021/08/17 20:25:46;;;;;;;;;;;15.00;99.90;;;;;;8461173;28;19916;-66
2021/08/17 20:29:46;;;;;;;;;;;14.80;99.90;;;;;;8460427;28;19915;-66
2021/08/17 20:33:48;;;;;;;;;;;14.80;99.90;;;;;;8460774;28;20429;-65
2021/08/17 20:37:48;;;;;;;;;;;15.10;99.90;;;;;;8442076;28;19961;-65
2021/08/17 20:41:48;;;;;;;;;;;15.00;99.90;;;;;;8460691;28;19915;-65
2021/08/17 20:45:49;;;;;;;;;;;14.80;99.90;;;;;;8460576;28;19912;-65
2021/08/17 20:49:49;;;;;;;;;;;14.70;99.90;;;;;;8459848;28;19927;-65
2021/08/17 20:53:50;;;;;;;;;;;14.60;99.90;;;;;;8441500;28;20108;-65
2021/08/17 20:57:52;;;;;;;;;;;14.70;99.90;;;;;;8459643;28;19907;-65
2021/08/17 21:01:52;;;;;;;;;;;14.40;99.90;;;;;;8460255;28;19969;-65
2021/08/17 21:05:53;;;;;;;;;;;14.30;99.90;;;;;;8460530;28;19960;-65
2021/08/17 21:09:53;;;;;;;;;;;14.30;99.90;;;;;;8459166;28;19912;-65
2021/08/17 21:13:53;;;;;;;;;;;14.10;99.90;;;;;;8459671;28;20399;-65
2021/08/17 21:17:54;;;;;;;;;;;14.20;99.90;;;;;;8459257;28;19954;-64
2021/08/17 21:21:55;;;;;;;;;;;14.30;99.90;;;;;;8458840;28;19907;-65
2021/08/17 21:25:55;;;;;;;;;;;14.10;99.90;;;;;;8459682;28;19965;-65
2021/08/17 21:29:56;;;;;;;;;;;14.00;99.90;;;;;;8457984;28;20354;-65
2021/08/17 21:33:57;;;;;;;;;;;14.10;99.90;;;;;;8458280;28;19915;-65
2021/08/17 21:37:57;;;;;;;;;;;14.00;99.90;;;;;;8458242;28;19907;-65
2021/08/17 21:41:58;;;;;;;;;;;13.90;99.90;;;;;;8440667;28;20292;-65
2021/08/17 21:46:00;;;;;;;;;;;13.90;99.90;;;;;;8459286;28;19966;-65
2021/08/17 21:50:00;;;;;;;;;;;14.00;99.90;;;;;;8440116;28;20308;-65
2021/08/17 21:54:01;;;;;;;;;;;13.80;99.90;;;;;;8458797;28;19998;-66
2021/08/17 21:58:01;;;;;;;;;;;13.90;99.90;;;;;;8458633;28;20266;-66
2021/08/17 22:02:02;;;;;;;;;;;14.00;99.90;;;;;;8458792;28;20413;-65
2021/08/17 22:06:03;;;;;;;;;;;13.80;99.90;;;;;;8458642;28;19908;-65
2021/08/17 22:10:04;;;;;;;;;;;13.50;99.90;;;;;;8439574;28;19912;-65
2021/08/17 22:14:04;;;;;;;;;;;13.40;99.90;;;;;;8458610;28;19908;-65
2021/08/17 22:18:05;;;;;;;;;;;13.50;99.90;;;;;;8458334;28;19960;-66
2021/08/17 22:22:05;;;;;;;;;;;13.60;99.90;;;;;;8458268;28;19908;-65
2021/08/17 22:26:11;;;;;;;;;;;13.50;99.90;;;;;;8440208;28;19931;-65
2021/08/17 22:30:15;;;;;;;;;;;13.50;99.90;;;;;;8439479;28;19915;-65
2021/08/17 22:34:16;;;;;;;;;;;13.70;99.90;;;;;;8458149;28;19990;-65
2021/08/17 22:38:16;;;;;;;;;;;13.50;99.90;;;;;;8457936;28;19981;-66
2021/08/17 22:42:16;;;;;;;;;;;13.30;99.90;;;;;;8444689;28;19947;-66
2021/08/17 22:46:17;;;;;;;;;;;13.20;99.90;;;;;;8464243;28;19908;-65
2021/08/17 22:50:17;;;;;;;;;;;13.20;99.90;;;;;;8463676;28;19923;-65
2021/08/17 22:54:18;;;;;;;;;;;13.10;99.90;;;;;;8445791;28;19908;-65
2021/08/17 22:58:18;;;;;;;;;;;13.20;99.90;;;;;;8463344;28;19962;-65
2021/08/17 23:02:19;;;;;;;;;;;13.10;99.90;;;;;;8463859;28;19912;-66
2021/08/17 23:06:20;;;;;;;;;;;13.00;99.90;;;;;;8463692;28;20305;-65
2021/08/17 23:10:20;;;;;;;;;;;13.10;99.90;;;;;;8462563;28;19916;-65
2021/08/17 23:14:20;;;;;;;;;;;13.20;99.90;;;;;;8463453;28;19915;-66
2021/08/17 23:18:21;;;;;;;;;;;13.20;99.90;;;;;;8462842;28;19908;-65
2021/08/17 23:22:21;;;;;;;;;;;13.30;99.90;;;;;;8462919;28;19958;-65